Time;durP1;ratioP1;P1;durP2;ratioP2;P2;SDS_P1;SDS_P2;PMS_P1;PMS_P2;Temp;Humidity;BMP_temperature;BMP_pressure;BME280_temperature;BME280_humidity;BME280_pressure;Samples;Min_cycle;Max_cycle;Signal;HPM_P1;HPM_P2
2021/08/17 00:02:13;;;;;;;1.20;1.00;;;14.20;98.00;;;;;;5093399;28;20864;-71
2021/08/17 00:04:40;;;;;;;1.80;1.20;;;14.20;98.00;;;;;;5093473;28;20497;-72
2021/08/17 00:07:08;;;;;;;1.20;1.00;;;14.10;98.00;;;;;;5093156;28;20510;-72
2021/08/17 00:09:35;;;;;;;1.20;1.00;;;14.00;98.00;;;;;;5093359;28;20496;-71
2021/08/17 00:12:03;;;;;;;1.20;1.00;;;13.90;98.00;;;;;;5093429;28;20452;-73
2021/08/17 00:14:32;;;;;;;1.43;1.20;;;13.80;98.00;;;;;;5093109;28;20899;-72
2021/08/17 00:16:59;;;;;;;1.20;1.00;;;13.70;98.00;;;;;;5093359;28;20520;-72
2021/08/17 00:19:26;;;;;;;1.20;1.00;;;13.80;98.00;;;;;;5093097;28;20452;-71
2021/08/17 00:21:53;;;;;;;1.40;1.17;;;14.00;98.00;;;;;;5092619;28;20506;-72
2021/08/17 00:24:20;;;;;;;1.20;1.00;;;14.00;98.00;;;;;;5093062;28;21020;-72
2021/08/17 00:26:56;;;;;;;1.20;0.90;;;13.90;98.00;;;;;;5092778;28;20961;-71
2021/08/17 00:29:22;;;;;;;3.43;1.60;;;13.80;98.00;;;;;;5075873;28;20484;-72
2021/08/17 00:31:56;;;;;;;1.20;1.00;;;13.80;98.00;;;;;;5092643;28;21076;-72
2021/08/17 00:34:24;;;;;;;1.20;1.10;;;13.80;98.00;;;;;;5092134;28;20459;-72
2021/08/17 00:36:51;;;;;;;1.30;1.10;;;13.80;98.00;;;;;;5092387;28;20460;-72
2021/08/17 00:39:18;;;;;;;2.07;1.17;;;13.90;98.00;;;;;;5092609;28;20452;-72
2021/08/17 00:41:46;;;;;;;1.20;1.00;;;13.90;98.00;;;;;;5092388;28;20491;-72
2021/08/17 00:44:20;;;;;;;1.30;1.10;;;13.90;98.00;;;;;;5092394;28;21083;-72
2021/08/17 00:46:47;;;;;;;1.20;1.00;;;13.80;98.00;;;;;;5092154;28;20942;-72
2021/08/17 00:49:17;;;;;;;1.20;1.10;;;13.80;98.00;;;;;;5092304;28;20511;-71
2021/08/17 00:51:44;;;;;;;1.80;1.10;;;13.80;98.00;;;;;;5092262;28;20489;-72
2021/08/17 00:54:12;;;;;;;1.20;1.00;;;13.90;98.00;;;;;;5092112;28;21003;-72
2021/08/17 00:56:39;;;;;;;1.33;1.10;;;13.90;98.00;;;;;;5092226;28;20488;-73
2021/08/17 00:59:07;;;;;;;1.23;1.07;;;13.90;98.00;;;;;;5092253;28;21159;-71
2021/08/17 01:01:34;;;;;;;1.60;1.17;;;13.90;98.00;;;;;;5091712;28;20527;-71
2021/08/17 01:04:02;;;;;;;1.20;1.00;;;13.90;98.00;;;;;;5092151;28;20493;-71
2021/08/17 01:06:32;;;;;;;1.20;1.00;;;13.90;98.00;;;;;;5092145;28;20461;-73
2021/08/17 01:08:59;;;;;;;1.30;1.20;;;13.80;98.00;;;;;;5092051;28;21077;-71
2021/08/17 01:11:26;;;;;;;2.33;1.10;;;13.80;98.00;;;;;;5092125;28;20509;-71
2021/08/17 01:13:53;;;;;;;1.20;1.00;;;13.90;98.00;;;;;;5091990;28;20460;-72
2021/08/17 01:16:20;;;;;;;1.97;1.10;;;14.00;98.00;;;;;;5092094;28;20477;-72
2021/08/17 01:18:48;;;;;;;1.20;1.00;;;14.10;98.00;;;;;;5092067;28;20547;-71
2021/08/17 01:21:16;;;;;;;2.93;1.30;;;14.10;98.00;;;;;;5091995;28;20549;-71
2021/08/17 01:23:44;;;;;;;1.20;1.00;;;14.10;98.00;;;;;;5092094;28;20483;-72
2021/08/17 01:26:13;;;;;;;1.20;1.10;;;14.10;98.00;;;;;;5091899;28;20449;-73
2021/08/17 01:28:40;;;;;;;1.20;1.10;;;14.10;98.00;;;;;;5091944;28;20559;-72
2021/08/17 01:31:09;;;;;;;1.20;1.10;;;14.10;98.00;;;;;;5092041;28;20461;-71
2021/08/17 01:33:37;;;;;;;1.20;1.00;;;14.20;98.00;;;;;;5091825;28;20464;-72
2021/08/17 01:36:05;;;;;;;2.17;1.10;;;14.30;98.00;;;;;;5091674;28;20496;-72
2021/08/17 01:38:32;;;;;;;1.47;1.47;;;14.30;98.00;;;;;;5091889;28;20493;-71
2021/08/17 01:40:59;;;;;;;1.20;1.10;;;14.30;98.00;;;;;;5091389;28;20497;-71
2021/08/17 01:43:27;;;;;;;1.70;1.30;;;14.10;98.00;;;;;;5091655;28;20460;-72
2021/08/17 01:45:56;;;;;;;1.30;1.20;;;14.20;98.00;;;;;;5091752;28;20499;-71
2021/08/17 01:48:25;;;;;;;1.20;1.10;;;14.20;98.00;;;;;;5091494;28;20519;-72
2021/08/17 01:50:52;;;;;;;1.20;1.00;;;14.10;98.00;;;;;;5091389;28;20489;-74
2021/08/17 01:53:22;;;;;;;1.40;1.20;;;14.10;98.00;;;;;;5073820;28;20811;-73
2021/08/17 01:55:49;;;;;;;1.20;1.00;;;14.10;98.00;;;;;;5091511;28;20461;-71
2021/08/17 01:58:16;;;;;;;1.20;1.10;;;14.20;98.00;;;;;;5091542;28;20542;-72
2021/08/17 02:00:46;;;;;;;1.30;1.30;;;14.40;98.00;;;;;;5090826;28;20497;-71
2021/08/17 02:03:14;;;;;;;1.20;1.00;;;14.40;98.00;;;;;;5091426;28;20493;-71
2021/08/17 02:05:41;;;;;;;1.73;1.20;;;14.40;98.00;;;;;;5091417;28;20458;-71
2021/08/17 02:08:09;;;;;;;1.20;1.00;;;14.30;98.00;;;;;;5091389;28;20575;-73
2021/08/17 02:10:37;;;;;;;1.30;1.10;;;14.10;98.00;;;;;;5073750;28;20446;-70
2021/08/17 02:13:05;;;;;;;1.60;1.20;;;13.90;98.00;;;;;;5091434;28;20484;-71
2021/08/17 02:15:32;;;;;;;1.20;1.00;;;13.90;98.00;;;;;;5094549;28;20453;-72
2021/08/17 02:18:01;;;;;;;1.20;1.00;;;13.90;98.00;;;;;;5095239;28;20939;-71
2021/08/17 02:20:28;;;;;;;1.30;1.10;;;13.90;98.00;;;;;;5095179;28;20520;-72
2021/08/17 02:22:55;;;;;;;1.30;1.17;;;13.90;98.00;;;;;;5095173;28;20523;-71
2021/08/17 02:25:22;;;;;;;1.80;1.20;;;13.90;98.00;;;;;;5095075;28;20489;-72
2021/08/17 02:27:49;;;;;;;1.20;1.10;;;13.90;98.00;;;;;;5095099;28;20800;-72
2021/08/17 02:30:16;;;;;;;1.20;1.03;;;13.80;98.00;;;;;;5095093;28;20488;-72
2021/08/17 02:32:43;;;;;;;1.20;1.00;;;13.60;98.00;;;;;;5094922;28;20950;-71
2021/08/17 02:35:12;;;;;;;1.30;1.30;;;13.50;98.00;;;;;;5094900;28;20757;-72
2021/08/17 02:37:39;;;;;;;1.20;0.90;;;13.60;98.00;;;;;;5060744;28;20457;-71
2021/08/17 02:40:09;;;;;;;3.20;1.10;;;13.50;98.00;;;;;;5094799;28;20511;-72
2021/08/17 02:42:37;;;;;;;1.20;1.03;;;13.60;98.00;;;;;;5094879;28;20528;-73
2021/08/17 02:45:05;;;;;;;1.20;1.10;;;13.60;98.00;;;;;;5094978;28;20856;-71
2021/08/17 02:47:33;;;;;;;1.40;1.27;;;13.60;98.00;;;;;;5094989;28;20446;-71
2021/08/17 02:50:00;;;;;;;1.20;1.10;;;13.50;98.00;;;;;;5094776;28;20601;-72
2021/08/17 02:52:29;;;;;;;1.20;1.00;;;13.60;98.00;;;;;;5095017;28;20856;-71
2021/08/17 02:54:56;;;;;;;2.70;1.43;;;13.60;98.00;;;;;;5094745;28;20510;-72
2021/08/17 02:57:23;;;;;;;1.67;1.27;;;13.70;98.00;;;;;;5094518;28;20886;-71
2021/08/17 02:59:50;;;;;;;1.20;0.90;;;13.60;98.00;;;;;;5094364;28;20475;-72
2021/08/17 03:02:18;;;;;;;1.20;1.00;;;13.50;98.00;;;;;;5094253;28;20461;-72
2021/08/17 03:04:44;;;;;;;1.20;1.20;;;13.50;98.00;;;;;;5094554;28;20485;-72
2021/08/17 03:07:11;;;;;;;1.20;1.10;;;13.40;98.00;;;;;;5094256;28;20491;-71
2021/08/17 03:09:40;;;;;;;1.87;1.30;;;13.50;98.00;;;;;;5093920;28;21037;-73
2021/08/17 03:12:08;;;;;;;1.20;1.00;;;13.40;98.00;;;;;;5094182;28;20492;-72
2021/08/17 03:14:35;;;;;;;1.20;1.03;;;13.30;98.00;;;;;;5094174;28;20503;-71
2021/08/17 03:17:02;;;;;;;1.30;1.20;;;13.10;98.00;;;;;;5094070;28;20506;-73
2021/08/17 03:19:30;;;;;;;1.47;1.10;;;13.10;98.00;;;;;;5076217;28;20464;-72
2021/08/17 03:21:57;;;;;;;2.47;1.47;;;13.10;98.00;;;;;;5093973;28;20488;-74
2021/08/17 03:24:24;;;;;;;1.20;1.00;;;13.10;98.00;;;;;;5093923;28;20816;-71
2021/08/17 03:26:52;;;;;;;1.40;1.20;;;13.00;98.00;;;;;;5093611;28;20518;-73
2021/08/17 03:29:20;;;;;;;1.30;1.23;;;13.00;98.00;;;;;;5093697;28;20482;-72
2021/08/17 03:31:47;;;;;;;1.50;1.20;;;13.00;98.00;;;;;;5093798;28;20565;-73
2021/08/17 03:34:14;;;;;;;1.97;1.40;;;13.10;98.00;;;;;;5093662;28;20890;-71
2021/08/17 03:36:41;;;;;;;1.20;1.10;;;13.20;98.00;;;;;;5075855;28;20502;-73
2021/08/17 03:39:09;;;;;;;1.20;1.10;;;13.10;98.00;;;;;;5075816;28;20480;-73
2021/08/17 03:41:36;;;;;;;1.23;1.10;;;12.90;98.00;;;;;;5093749;28;20456;-72
2021/08/17 03:44:07;;;;;;;1.20;1.10;;;12.90;98.00;;;;;;5093733;28;20468;-72
2021/08/17 03:46:35;;;;;;;1.20;1.10;;;12.90;98.00;;;;;;5093627;28;20909;-72
2021/08/17 03:49:05;;;;;;;1.47;1.20;;;12.90;98.00;;;;;;5075740;28;20483;-74
2021/08/17 03:51:32;;;;;;;3.53;1.47;;;12.70;98.00;;;;;;5093521;28;21031;-72
2021/08/17 03:53:59;;;;;;;1.20;1.00;;;12.50;98.00;;;;;;5093550;28;20891;-73
2021/08/17 03:56:26;;;;;;;2.53;1.50;;;12.50;98.00;;;;;;5093376;28;20510;-71
2021/08/17 03:58:53;;;;;;;1.30;1.20;;;12.30;98.00;;;;;;5092636;28;21077;-72
2021/08/17 04:01:22;;;;;;;1.83;1.30;;;12.30;98.00;;;;;;5092414;28;20924;-71
2021/08/17 04:03:49;;;;;;;1.20;1.20;;;12.40;98.00;;;;;;5074526;28;20489;-71
2021/08/17 04:06:16;;;;;;;1.20;1.00;;;12.30;98.00;;;;;;5092491;28;20486;-72
2021/08/17 04:08:43;;;;;;;1.20;0.90;;;12.30;98.00;;;;;;5093138;28;20480;-73
2021/08/17 04:11:10;;;;;;;1.20;1.10;;;12.20;98.00;;;;;;5093242;28;20456;-71
2021/08/17 04:13:37;;;;;;;1.57;1.10;;;12.20;98.00;;;;;;5093153;28;20458;-72
2021/08/17 04:16:05;;;;;;;1.50;1.10;;;12.40;98.00;;;;;;5093200;28;20472;-72
2021/08/17 04:18:33;;;;;;;2.03;1.33;;;12.50;98.00;;;;;;5092948;28;20547;-73
2021/08/17 04:21:00;;;;;;;2.67;1.30;;;12.50;98.00;;;;;;5093299;28;20564;-72
2021/08/17 04:23:27;;;;;;;1.20;1.10;;;12.40;98.00;;;;;;5093282;28;20491;-72
2021/08/17 04:25:54;;;;;;;1.20;1.03;;;12.40;98.00;;;;;;5092787;28;20499;-71
2021/08/17 04:28:21;;;;;;;1.20;1.10;;;12.40;98.00;;;;;;5092773;28;20952;-72
2021/08/17 04:30:48;;;;;;;1.30;1.03;;;12.40;98.00;;;;;;5092710;28;20522;-73
2021/08/17 04:33:15;;;;;;;1.83;1.63;;;12.40;98.00;;;;;;5092575;28;20564;-72
2021/08/17 04:35:43;;;;;;;2.90;1.50;;;12.50;98.00;;;;;;5074440;28;20467;-73
2021/08/17 04:38:10;;;;;;;1.20;1.10;;;12.50;98.00;;;;;;5091841;28;20509;-71
2021/08/17 04:40:38;;;;;;;1.20;1.00;;;12.40;98.00;;;;;;5092526;28;20452;-72
2021/08/17 04:43:05;;;;;;;1.43;1.27;;;12.30;98.00;;;;;;5074578;28;20511;-72
2021/08/17 04:45:32;;;;;;;1.30;1.03;;;12.40;98.00;;;;;;5092447;28;20526;-72
2021/08/17 04:48:00;;;;;;;1.30;1.10;;;12.50;98.00;;;;;;5092604;28;20495;-71
2021/08/17 04:50:27;;;;;;;1.40;1.10;;;12.50;98.00;;;;;;5092430;28;20486;-71
2021/08/17 04:52:56;;;;;;;1.40;1.13;;;12.50;98.00;;;;;;5074363;28;20488;-73
2021/08/17 04:55:23;;;;;;;1.50;1.20;;;12.50;98.00;;;;;;5092320;28;20454;-73
2021/08/17 04:57:51;;;;;;;1.20;1.10;;;12.50;98.00;;;;;;5092444;28;20953;-73
2021/08/17 05:00:19;;;;;;;1.30;1.10;;;12.60;98.00;;;;;;5092291;28;20450;-73
2021/08/17 05:02:46;;;;;;;1.70;1.47;;;12.60;98.00;;;;;;5092279;28;20486;-73
2021/08/17 05:05:13;;;;;;;1.63;1.40;;;12.50;98.00;;;;;;5092336;28;20491;-71
2021/08/17 05:07:41;;;;;;;1.20;1.03;;;12.70;98.00;;;;;;5092119;28;20450;-72
2021/08/17 05:10:15;;;;;;;1.20;1.20;;;12.70;98.00;;;;;;5092098;28;20544;-72
2021/08/17 05:12:43;;;;;;;1.60;1.10;;;12.80;98.00;;;;;;5092144;28;20448;-72
2021/08/17 05:15:16;;;;;;;1.57;1.10;;;12.90;98.00;;;;;;5092208;28;20548;-71
2021/08/17 05:17:43;;;;;;;1.20;1.00;;;12.80;98.00;;;;;;5092184;28;20450;-71
2021/08/17 05:20:12;;;;;;;1.20;1.00;;;12.90;98.00;;;;;;5092014;28;20514;-73
2021/08/17 05:22:39;;;;;;;1.97;1.30;;;12.90;98.00;;;;;;5092033;28;20454;-72
2021/08/17 05:25:09;;;;;;;1.80;1.37;;;13.00;98.00;;;;;;5092119;28;20526;-74
2021/08/17 05:27:36;;;;;;;1.20;1.00;;;13.20;98.00;;;;;;5074191;28;20547;-73
2021/08/17 05:30:05;;;;;;;1.30;1.10;;;13.20;98.00;;;;;;5091935;28;20521;-72
2021/08/17 05:32:32;;;;;;;1.53;1.10;;;13.20;98.00;;;;;;5091777;28;20897;-73
2021/08/17 05:34:59;;;;;;;1.20;1.10;;;13.30;98.00;;;;;;5091932;28;20454;-72
2021/08/17 05:37:27;;;;;;;1.30;1.17;;;13.20;98.00;;;;;;5074036;28;20482;-73
2021/08/17 05:39:54;;;;;;;1.30;1.20;;;13.30;98.00;;;;;;5074248;28;20504;-74
2021/08/17 05:42:24;;;;;;;1.47;1.20;;;13.30;98.00;;;;;;5091819;28;20523;-72
2021/08/17 05:44:51;;;;;;;1.20;1.07;;;13.10;98.00;;;;;;5091782;28;20469;-73
2021/08/17 05:47:18;;;;;;;1.20;1.00;;;13.20;98.00;;;;;;5091763;28;21032;-71
2021/08/17 05:49:45;;;;;;;1.20;1.00;;;13.20;98.00;;;;;;5095346;28;21063;-71
2021/08/17 05:52:14;;;;;;;1.20;0.93;;;13.10;98.00;;;;;;5095713;28;20486;-72
2021/08/17 05:54:41;;;;;;;1.20;1.07;;;13.20;98.00;;;;;;5095694;28;20451;-72
2021/08/17 05:57:09;;;;;;;1.67;1.53;;;13.30;98.00;;;;;;5095593;28;20569;-72
2021/08/17 05:59:38;;;;;;;1.60;1.40;;;13.30;98.00;;;;;;5095733;28;20506;-71
2021/08/17 06:02:05;;;;;;;5.47;1.57;;;13.40;98.00;;;;;;5095694;28;20836;-73
2021/08/17 06:04:33;;;;;;;1.20;1.00;;;13.30;98.00;;;;;;5095535;28;20462;-72
2021/08/17 06:07:00;;;;;;;1.20;1.10;;;13.10;98.00;;;;;;5077246;28;20462;-70
2021/08/17 06:09:30;;;;;;;1.30;1.20;;;13.30;98.00;;;;;;5095552;28;21117;-74
2021/08/17 06:11:58;;;;;;;1.33;1.13;;;13.40;98.00;;;;;;5095393;28;20509;-73
2021/08/17 06:14:25;;;;;;;3.50;1.53;;;13.50;98.00;;;;;;5095393;28;20466;-72
2021/08/17 06:16:54;;;;;;;1.30;1.17;;;13.70;98.00;;;;;;5095239;28;20463;-72
2021/08/17 06:19:21;;;;;;;1.20;1.00;;;13.70;98.00;;;;;;5076588;28;20537;-74
2021/08/17 06:21:49;;;;;;;1.67;1.37;;;13.90;98.00;;;;;;5095024;28;20452;-73
2021/08/17 06:24:16;;;;;;;1.20;1.13;;;13.70;98.00;;;;;;5095331;28;21083;-75
2021/08/17 06:26:43;;;;;;;1.20;1.03;;;13.70;98.00;;;;;;5095178;28;20464;-73
2021/08/17 06:29:10;;;;;;;1.37;1.13;;;13.80;98.00;;;;;;5095123;28;20549;-75
2021/08/17 06:31:37;;;;;;;1.70;1.13;;;13.90;98.00;;;;;;5094939;28;20457;-74
2021/08/17 06:34:06;;;;;;;1.60;1.10;;;13.80;98.00;;;;;;5095076;28;20870;-72
2021/08/17 06:36:35;;;;;;;1.30;1.13;;;13.90;98.00;;;;;;5094974;28;20459;-72
2021/08/17 06:39:02;;;;;;;1.43;1.20;;;14.00;98.00;;;;;;5095080;28;20538;-73
2021/08/17 06:41:29;;;;;;;1.50;1.20;;;14.10;98.00;;;;;;5094940;28;20482;-74
2021/08/17 06:43:56;;;;;;;1.50;1.10;;;14.10;98.00;;;;;;5094981;28;20502;-74
2021/08/17 06:46:24;;;;;;;1.40;1.20;;;14.20;98.00;;;;;;5094821;28;20462;-74
2021/08/17 06:48:51;;;;;;;1.40;1.20;;;14.30;98.00;;;;;;5094724;28;20456;-74
2021/08/17 06:51:19;;;;;;;1.20;1.10;;;14.40;98.00;;;;;;5094797;28;20537;-75
2021/08/17 06:53:46;;;;;;;1.20;1.10;;;14.30;98.00;;;;;;5076924;28;20464;-74
2021/08/17 06:56:14;;;;;;;1.30;1.03;;;14.40;98.00;;;;;;5094806;28;20783;-74
2021/08/17 06:58:42;;;;;;;1.30;1.03;;;14.40;98.00;;;;;;5094890;28;20481;-74
2021/08/17 07:01:09;;;;;;;1.33;1.10;;;14.50;98.00;;;;;;5094052;28;20514;-73
2021/08/17 07:03:36;;;;;;;2.70;1.93;;;14.60;98.00;;;;;;5094430;28;20528;-73
2021/08/17 07:06:03;;;;;;;1.20;1.17;;;14.50;98.00;;;;;;5094693;28;20496;-75
2021/08/17 07:08:31;;;;;;;1.20;1.10;;;14.70;98.00;;;;;;5094369;28;20460;-75
2021/08/17 07:11:00;;;;;;;1.30;1.20;;;14.60;98.00;;;;;;5094017;28;20574;-73
2021/08/17 07:13:28;;;;;;;1.20;1.03;;;14.50;98.00;;;;;;5094466;28;20928;-75
2021/08/17 07:15:55;;;;;;;1.20;1.10;;;14.50;98.00;;;;;;5094127;28;20974;-74
2021/08/17 07:18:22;;;;;;;1.20;1.10;;;14.60;98.00;;;;;;5094076;28;20476;-73
2021/08/17 07:20:54;;;;;;;1.40;1.20;;;14.60;98.00;;;;;;5085502;28;20560;-76
2021/08/17 07:23:21;;;;;;;2.07;1.63;;;14.70;98.00;;;;;;5072959;28;20949;-76
2021/08/17 07:25:59;;;;;;;1.37;1.20;;;14.70;98.00;;;;;;5071744;28;20466;-75
2021/08/17 07:28:27;;;;;;;1.37;1.20;;;14.90;98.00;;;;;;5076114;28;20458;-72
2021/08/17 07:30:54;;;;;;;1.20;1.10;;;15.00;98.00;;;;;;5076543;28;20585;-73
2021/08/17 07:33:22;;;;;;;1.20;1.10;;;15.00;98.00;;;;;;5084397;28;20488;-75
2021/08/17 07:35:52;;;;;;;1.20;1.07;;;15.10;98.00;;;;;;5077022;28;20567;-73
2021/08/17 07:38:19;;;;;;;1.30;1.20;;;15.00;98.00;;;;;;5080994;28;20467;-74
2021/08/17 07:40:47;;;;;;;1.50;1.20;;;15.10;98.00;;;;;;5080310;28;20885;-74
2021/08/17 07:43:15;;;;;;;1.20;1.13;;;15.20;98.00;;;;;;5080964;28;20956;-74
2021/08/17 07:45:42;;;;;;;2.63;1.30;;;15.30;98.00;;;;;;5084560;28;20486;-74
2021/08/17 07:48:10;;;;;;;1.53;1.20;;;15.40;98.00;;;;;;5045253;28;20463;-74
2021/08/17 07:50:39;;;;;;;1.33;1.20;;;15.30;98.00;;;;;;5082536;28;20523;-75
2021/08/17 07:53:07;;;;;;;1.20;1.10;;;15.50;98.00;;;;;;5054228;28;20514;-74
2021/08/17 07:55:34;;;;;;;1.40;1.30;;;15.60;98.00;;;;;;5080225;28;21034;-76
2021/08/17 07:58:02;;;;;;;1.50;1.20;;;15.70;98.00;;;;;;5079640;28;20913;-77
2021/08/17 08:00:30;;;;;;;1.30;1.20;;;15.60;98.00;;;;;;5060449;28;20962;-76
2021/08/17 08:02:57;;;;;;;1.33;1.20;;;15.80;98.00;;;;;;5083120;28;20455;-73
2021/08/17 08:05:24;;;;;;;1.63;1.30;;;16.00;98.00;;;;;;5089064;28;20482;-75
2021/08/17 08:07:51;;;;;;;1.20;1.10;;;16.20;98.00;;;;;;5084761;28;20458;-75
2021/08/17 08:10:18;;;;;;;1.70;1.23;;;16.10;98.00;;;;;;5079978;28;20527;-78
2021/08/17 08:12:45;;;;;;;1.50;1.23;;;16.20;98.00;;;;;;5070395;28;20511;-75
2021/08/17 08:15:13;;;;;;;1.30;1.10;;;16.30;98.00;;;;;;5081316;28;20824;-76
2021/08/17 08:17:41;;;;;;;1.30;1.30;;;16.20;98.00;;;;;;5085099;28;20460;-73
2021/08/17 08:20:10;;;;;;;1.83;1.20;;;16.10;98.00;;;;;;5071050;28;20583;-73
2021/08/17 08:22:36;;;;;;;1.80;1.57;;;16.10;98.00;;;;;;5081643;28;20454;-73
2021/08/17 08:25:04;;;;;;;1.43;1.20;;;16.00;98.00;;;;;;5086842;28;20530;-76
2021/08/17 08:27:33;;;;;;;1.60;1.40;;;16.10;98.00;;;;;;5071759;28;20465;-76
2021/08/17 08:30:00;;;;;;;1.90;1.50;;;16.00;98.00;;;;;;5082695;28;20498;-74
2021/08/17 08:32:28;;;;;;;1.63;1.40;;;16.00;98.00;;;;;;5084738;28;20499;-73
2021/08/17 08:34:57;;;;;;;2.00;1.60;;;16.10;98.00;;;;;;5061340;28;20941;-74
2021/08/17 08:37:24;;;;;;;1.67;1.30;;;16.60;98.00;;;;;;5070680;28;20496;-74
2021/08/17 08:39:52;;;;;;;1.70;1.20;;;17.30;98.00;;;;;;5071281;28;20878;-75
2021/08/17 08:42:22;;;;;;;1.20;1.10;;;17.70;98.00;;;;;;5072403;28;21051;-74
2021/08/17 08:44:49;;;;;;;1.50;1.30;;;17.80;98.00;;;;;;5077296;28;20506;-75
2021/08/17 08:47:17;;;;;;;1.20;1.17;;;17.80;98.00;;;;;;5064269;28;20465;-74
2021/08/17 08:49:49;;;;;;;1.70;1.30;;;17.90;98.00;;;;;;5065546;28;20515;-74
2021/08/17 08:52:19;;;;;;;1.70;1.27;;;18.10;94.80;;;;;;5071351;28;20489;-74
2021/08/17 08:54:47;;;;;;;1.40;1.27;;;18.00;96.30;;;;;;5081996;28;20516;-74
2021/08/17 08:57:14;;;;;;;1.30;1.20;;;17.80;96.50;;;;;;5088221;28;20505;-74
2021/08/17 08:59:41;;;;;;;1.30;1.23;;;17.70;97.90;;;;;;5075876;28;20459;-75
2021/08/17 09:02:10;;;;;;;1.20;1.10;;;17.60;97.10;;;;;;5054676;28;21363;-74
2021/08/17 09:04:39;;;;;;;1.70;1.20;;;17.40;98.00;;;;;;5086734;28;20522;-74
2021/08/17 09:07:06;;;;;;;1.50;1.40;;;17.10;97.80;;;;;;5083996;28;20471;-75
2021/08/17 09:09:35;;;;;;;1.90;1.30;;;17.10;98.00;;;;;;5073131;28;20460;-77
2021/08/17 09:12:04;;;;;;;1.60;1.50;;;17.20;98.00;;;;;;5050162;28;20496;-75
2021/08/17 09:14:34;;;;;;;1.40;1.40;;;17.20;98.00;;;;;;5082372;28;20933;-77
2021/08/17 09:17:03;;;;;;;1.30;1.10;;;17.30;98.00;;;;;;5082482;28;20467;-75
2021/08/17 09:19:33;;;;;;;1.87;1.60;;;17.30;98.00;;;;;;5086991;28;21007;-75
2021/08/17 09:22:04;;;;;;;2.00;1.43;;;17.30;98.00;;;;;;5077454;28;20925;-76
2021/08/17 09:24:35;;;;;;;1.70;1.33;;;17.30;98.00;;;;;;5082013;28;20496;-77
2021/08/17 09:27:04;;;;;;;1.20;1.10;;;17.30;97.00;;;;;;5078709;28;20504;-76
2021/08/17 09:29:36;;;;;;;1.30;1.10;;;17.40;96.80;;;;;;5073098;28;20467;-76
2021/08/17 09:32:13;;;;;;;1.93;1.40;;;17.60;96.20;;;;;;5082273;28;20492;-77
2021/08/17 09:34:41;;;;;;;1.20;1.17;;;17.80;95.10;;;;;;5068961;28;20464;-75
2021/08/17 09:37:11;;;;;;;1.80;1.37;;;17.70;95.00;;;;;;5052739;28;20494;-76
2021/08/17 09:39:44;;;;;;;1.50;1.40;;;17.60;95.20;;;;;;5070319;28;20461;-76
2021/08/17 09:42:29;;;;;;;1.20;1.10;;;17.50;94.40;;;;;;5076351;28;20477;-76
2021/08/17 09:45:08;;;;;;;1.60;1.20;;;17.60;94.40;;;;;;5078361;28;20550;-77
2021/08/17 09:47:37;;;;;;;1.53;1.30;;;17.70;93.60;;;;;;5062665;28;20459;-75
2021/08/17 09:50:26;;;;;;;1.30;1.10;;;17.80;94.80;;;;;;5076119;28;20468;-77
2021/08/17 09:53:09;;;;;;;1.30;1.30;;;17.70;93.60;;;;;;5078856;28;20480;-76
2021/08/17 09:55:43;;;;;;;1.50;1.30;;;17.60;93.40;;;;;;5070369;28;20456;-76
2021/08/17 09:58:28;;;;;;;2.07;1.33;;;17.70;96.50;;;;;;5075623;28;20466;-76
2021/08/17 10:00:58;;;;;;;1.37;1.20;;;18.00;93.90;;;;;;5051685;28;20460;-75
2021/08/17 10:03:26;;;;;;;1.20;1.13;;;18.10;94.40;;;;;;5078118;28;20448;-78
2021/08/17 10:05:53;;;;;;;2.33;1.30;;;18.20;94.40;;;;;;5078077;28;20534;-76
2021/08/17 10:08:22;;;;;;;1.50;1.40;;;18.10;93.90;;;;;;5078522;28;20547;-78
2021/08/17 10:10:53;;;;;;;1.20;1.10;;;18.00;93.10;;;;;;5069132;28;20566;-78
2021/08/17 10:13:23;;;;;;;1.40;1.17;;;18.00;92.70;;;;;;5086432;28;20520;-77
2021/08/17 10:15:51;;;;;;;2.30;1.50;;;18.10;92.10;;;;;;5069369;28;20464;-77
2021/08/17 10:18:22;;;;;;;2.23;1.50;;;18.20;91.80;;;;;;5086531;28;20451;-77
2021/08/17 10:20:51;;;;;;;1.53;1.50;;;18.30;91.30;;;;;;5077555;28;20493;-77
2021/08/17 10:23:19;;;;;;;1.70;1.60;;;18.20;92.70;;;;;;5078855;28;20542;-77
2021/08/17 10:25:49;;;;;;;1.23;1.13;;;18.30;93.50;;;;;;5070267;28;20537;-76
2021/08/17 10:28:36;;;;;;;1.50;1.23;;;18.20;89.00;;;;;;5068292;28;20842;-81
2021/08/17 10:31:26;;;;;;;1.33;1.27;;;18.10;90.30;;;;;;5075950;28;20509;-76
2021/08/17 10:33:55;;;;;;;2.13;1.30;;;18.20;92.40;;;;;;5075677;28;20500;-77
2021/08/17 10:36:34;;;;;;;1.20;1.10;;;18.30;90.40;;;;;;5080710;28;20530;-76
2021/08/17 10:39:03;;;;;;;1.20;1.10;;;18.40;91.20;;;;;;5091186;28;20494;-76
2021/08/17 10:41:33;;;;;;;2.90;1.50;;;18.20;88.80;;;;;;5083340;28;20488;-78
2021/08/17 10:44:14;;;;;;;1.37;1.23;;;18.20;89.80;;;;;;5081345;28;20488;-76
2021/08/17 10:47:02;;;;;;;1.50;1.33;;;18.20;87.30;;;;;;5082499;28;20452;-77
2021/08/17 10:49:51;;;;;;;1.37;1.30;;;18.40;87.30;;;;;;5074678;28;21151;-76
2021/08/17 10:52:29;;;;;;;3.60;1.30;;;18.50;85.30;;;;;;5077135;28;20822;-77
2021/08/17 10:55:25;;;;;;;1.37;1.27;;;18.40;89.00;;;;;;5072878;28;20917;-77
2021/08/17 10:57:55;;;;;;;1.40;1.30;;;18.50;89.20;;;;;;5029914;28;20468;-77
2021/08/17 11:00:49;;;;;;;2.93;1.50;;;18.80;87.70;;;;;;5065906;28;20551;-76
2021/08/17 11:03:47;;;;;;;2.33;1.30;;;19.30;88.90;;;;;;5084645;28;20456;-75
2021/08/17 11:06:40;;;;;;;1.53;1.30;;;19.70;87.20;;;;;;5073786;28;20453;-75
2021/08/17 11:09:08;;;;;;;1.40;1.20;;;20.10;83.80;;;;;;5064713;28;20530;-76
2021/08/17 11:11:36;;;;;;;1.20;1.20;;;20.20;83.70;;;;;;5073595;28;20523;-76
2021/08/17 11:14:05;;;;;;;1.57;1.20;;;20.50;83.50;;;;;;5071656;28;20464;-75
2021/08/17 11:16:34;;;;;;;1.27;1.27;;;20.40;81.80;;;;;;5080805;28;20491;-76
2021/08/17 11:19:04;;;;;;;1.30;1.20;;;20.60;82.40;;;;;;5080358;28;20492;-76
2021/08/17 11:21:36;;;;;;;1.60;1.30;;;20.70;84.70;;;;;;5072843;28;20492;-75
2021/08/17 11:24:21;;;;;;;1.73;1.43;;;20.80;81.40;;;;;;5072042;28;20465;-76
2021/08/17 11:26:54;;;;;;;1.40;1.30;;;20.70;82.50;;;;;;5085464;28;20483;-77
2021/08/17 11:29:43;;;;;;;1.30;1.20;;;20.60;81.50;;;;;;5080183;28;20464;-75
2021/08/17 11:32:13;;;;;;;1.30;1.27;;;20.40;80.70;;;;;;5080389;28;20502;-74
2021/08/17 11:34:42;;;;;;;1.20;1.10;;;20.70;81.40;;;;;;5062849;28;20512;-76
2021/08/17 11:37:12;;;;;;;1.20;1.10;;;21.10;77.70;;;;;;5079805;28;20463;-77
2021/08/17 11:39:42;;;;;;;1.43;1.30;;;21.30;79.00;;;;;;5080419;28;20540;-75
2021/08/17 11:42:11;;;;;;;1.20;1.20;;;21.50;76.60;;;;;;5080797;28;20487;-75
2021/08/17 11:44:39;;;;;;;1.43;1.20;;;21.60;78.80;;;;;;5088377;28;21007;-75
2021/08/17 11:47:09;;;;;;;1.30;1.17;;;21.70;74.50;;;;;;5089037;28;20861;-76
2021/08/17 11:49:38;;;;;;;1.30;1.17;;;21.90;76.40;;;;;;5078815;28;20592;-76
2021/08/17 11:52:12;;;;;;;1.30;1.20;;;21.80;75.50;;;;;;5071270;28;20487;-77
2021/08/17 11:55:00;;;;;;;1.30;1.20;;;22.00;77.10;;;;;;5080633;28;20460;-75
2021/08/17 11:57:32;;;;;;;1.40;1.30;;;21.70;74.80;;;;;;5071062;28;20515;-76
2021/08/17 12:00:09;;;;;;;1.30;1.20;;;21.60;75.50;;;;;;5077272;28;20599;-76
2021/08/17 12:02:38;;;;;;;1.50;1.20;;;21.80;77.30;;;;;;5075473;28;20479;-76
2021/08/17 12:05:09;;;;;;;2.40;1.30;;;21.90;76.80;;;;;;5076261;28;20488;-76
2021/08/17 12:07:36;;;;;;;1.40;1.27;;;21.70;76.60;;;;;;5084060;28;20465;-76
2021/08/17 12:10:07;;;;;;;2.00;1.47;;;21.60;77.60;;;;;;5057396;28;20963;-75
2021/08/17 12:12:56;;;;;;;1.50;1.40;;;21.70;75.70;;;;;;5083904;28;20926;-76
2021/08/17 12:15:29;;;;;;;1.30;1.20;;;22.00;77.30;;;;;;5088348;28;20484;-76
2021/08/17 12:17:57;;;;;;;1.40;1.10;;;22.10;76.20;;;;;;5078829;28;20553;-76
2021/08/17 12:20:26;;;;;;;2.03;1.73;;;22.20;77.30;;;;;;5089269;28;20977;-76
2021/08/17 12:22:54;;;;;;;2.97;1.90;;;21.60;76.00;;;;;;5079028;28;20954;-74
2021/08/17 12:25:22;;;;;;;1.20;1.10;;;21.50;75.60;;;;;;5071921;28;20487;-77
2021/08/17 12:27:57;;;;;;;1.30;1.20;;;21.60;76.90;;;;;;5079568;28;20542;-76
2021/08/17 12:30:29;;;;;;;2.20;1.60;;;21.40;76.20;;;;;;5061295;28;20475;-75
2021/08/17 12:32:57;;;;;;;1.30;1.20;;;21.50;79.70;;;;;;5070117;28;20579;-75
2021/08/17 12:35:30;;;;;;;1.47;1.30;;;21.70;78.80;;;;;;5071654;28;20635;-75
2021/08/17 12:38:13;;;;;;;1.20;1.20;;;21.30;76.00;;;;;;5062412;28;20492;-77
2021/08/17 12:40:48;;;;;;;1.30;1.20;;;21.40;76.50;;;;;;5066074;28;21123;-76
2021/08/17 12:43:20;;;;;;;1.30;1.20;;;21.70;76.20;;;;;;5084715;28;20540;-77
2021/08/17 12:45:53;;;;;;;1.40;1.20;;;21.90;77.80;;;;;;5073206;28;21125;-77
2021/08/17 12:48:23;;;;;;;1.30;1.10;;;22.30;75.00;;;;;;5086920;28;20475;-75
2021/08/17 12:50:52;;;;;;;2.03;1.47;;;22.50;74.70;;;;;;5079264;28;20460;-76
2021/08/17 12:53:21;;;;;;;1.40;1.37;;;22.50;75.40;;;;;;5082413;28;20519;-75
2021/08/17 12:55:49;;;;;;;1.40;1.20;;;22.50;74.80;;;;;;5087182;28;20594;-76
2021/08/17 12:58:16;;;;;;;1.43;1.37;;;22.60;74.40;;;;;;5074692;28;20456;-77
2021/08/17 13:00:44;;;;;;;1.50;1.17;;;22.90;72.40;;;;;;5070102;28;20486;-77